Terminal Aerodrome Forecast
Issued by NWS

Home | Current Version | Previous Version | Graphics & Text | Print | Product List | Glossary On
Versions: 1 2 3 4 5 6 7 8 9 10 11 12 13 14 15 16 17 18 19 20 21
000
FTUS43 KABR 020100 AAA
TAFPIR
TAF AMD
KPIR 020141Z 0202/0224 VRB06KT P6SM SCT060
     FM020900 13010KT P6SM SCT250
     FM021500 16017G25KT P6SM BKN250=

USA.gov is the U.S. government's official web portal to all federal, state and local government web resources and services.